Aviation Digital Data Service (ADDS)

Output produced by METARs form (1206 UTC 26 March 2019)
found at http://www.aviationweather.gov/metar/data/
 
TAF SGAS 261046Z 2612/2712 15004KT CAVOK TX28/2619Z TN18/2709Z 
     BECMG 2612/2615 VRB03KT CAVOK 
     BECMG 2616/2619 14005KT 9999 BKN033 
     BECMG 2621/2700 18005KT 9999 SCT033 
     BECMG 2701/2704 CAVOK
       
TAF SGES 261046Z 2612/2712 20010KT CAVOK TX28/2619Z TN17/2709Z 
     BECMG 2612/2315 14005KT 9999 BKN027 
     BECMG 2616/2619 12008KT 9999 SCT033 
     BECMG 2621/2623 VRB03KT CAVOK
       
TAF SGCO 261046Z 2612/2712 15008KT CAVOK TX30/2619Z TN20/2709Z 
     BECMG 2614/2617 VRB05KT 9999 BKN027 
     BECMG 2618/2621 9999 -RA BKN20 
     BECMG 2623/2702 17008KT 9999 SCT027